Time;durP1;ratioP1;P1;durP2;ratioP2;P2;SDS_P1;SDS_P2;PMS_P1;PMS_P2;Temp;Humidity;BMP_temperature;BMP_pressure;BME280_temperature;BME280_humidity;BME280_pressure;Samples;Min_cycle;Max_cycle;Signal;HPM_P1;HPM_P2
2023/05/05 00:01:08;;;;;;;8.90;7.50;;;;;;;15.81;72.77;155423.81;5019039;28;20463;-76
2023/05/05 00:03:35;;;;;;;8.33;7.53;;;;;;;15.80;72.79;155421.25;5001775;28;20486;-76
2023/05/05 00:06:01;;;;;;;9.33;7.60;;;;;;;15.79;72.84;155418.63;5009289;28;20460;-76
2023/05/05 00:08:28;;;;;;;8.93;7.30;;;;;;;15.80;72.54;155421.25;4997597;28;20530;-76
2023/05/05 00:10:56;;;;;;;8.83;7.70;;;;;;;15.78;72.95;155416.03;5009821;28;20468;-76
2023/05/05 00:13:23;;;;;;;10.50;7.40;;;;;;;15.74;72.22;155405.66;5006365;28;20437;-76
2023/05/05 00:15:52;;;;;;;11.30;8.00;;;;;;;15.73;72.39;155403.03;5019738;28;20570;-76
2023/05/05 00:18:19;;;;;;;7.67;6.87;;;;;;;15.71;72.50;155397.84;5021840;28;21311;-76
2023/05/05 00:20:46;;;;;;;8.60;7.73;;;;;;;15.70;73.19;155395.22;5011673;28;20820;-76
2023/05/05 00:23:13;;;;;;;9.43;7.83;;;;;;;15.71;73.33;155397.84;5007780;28;20589;-76
2023/05/05 00:25:39;;;;;;;9.53;8.10;;;;;;;15.71;73.25;155397.84;4988738;28;20464;-76
2023/05/05 00:28:07;;;;;;;8.27;7.47;;;;;;;15.70;73.64;155395.22;5021119;28;20462;-76
2023/05/05 00:30:34;;;;;;;8.50;7.70;;;;;;;15.71;74.04;155396.53;5019614;28;20450;-76
2023/05/05 00:33:01;;;;;;;9.10;7.50;;;;;;;15.68;73.95;155390.03;5008145;28;20455;-76
2023/05/05 00:35:27;;;;;;;9.27;8.00;;;;;;;15.66;73.32;155383.53;5021832;28;20585;-76
2023/05/05 00:37:54;;;;;;;8.27;7.17;;;;;;;15.66;74.17;155383.53;5013254;28;20534;-78
2023/05/05 00:40:21;;;;;;;8.10;7.30;;;;;;;15.64;74.58;155379.66;4989237;28;20448;-78
2023/05/05 00:43:01;;;;;;;8.33;7.53;;;;;;;15.64;74.44;155379.66;4998077;28;20479;-78
2023/05/05 00:45:30;;;;;;;7.97;7.20;;;;;;;15.59;74.84;155365.34;5002528;28;20469;-78
2023/05/05 00:47:57;;;;;;;7.90;7.03;;;;;;;15.56;75.24;155358.84;4997396;28;20454;-78
2023/05/05 00:50:25;;;;;;;8.90;6.77;;;;;;;15.54;75.68;155353.63;4990454;28;20463;-78
2023/05/05 00:52:54;;;;;;;8.33;7.20;;;;;;;15.54;75.66;155353.63;5008485;28;20504;-78
2023/05/05 00:55:20;;;;;;;8.60;7.60;;;;;;;15.52;75.54;155348.44;4999955;28;20476;-78
2023/05/05 00:57:47;;;;;;;8.00;7.17;;;;;;;15.51;76.16;155345.88;5027034;28;20486;-78
2023/05/05 01:00:15;;;;;;;7.63;6.83;;;;;;;15.49;75.78;155340.63;4989731;28;20456;-77
2023/05/05 01:02:44;;;;;;;8.23;7.43;;;;;;;15.51;76.54;155345.88;5014669;28;20528;-78
2023/05/05 01:05:12;;;;;;;9.80;8.00;;;;;;;15.52;76.73;155348.44;5003134;28;20583;-78
2023/05/05 01:07:48;;;;;;;8.63;7.70;;;;;;;15.52;76.38;155347.13;5020534;28;20470;-77
2023/05/05 01:10:19;;;;;;;7.50;6.80;;;;;;;15.50;75.79;155343.25;5015560;28;20948;-77
2023/05/05 01:12:52;;;;;;;7.90;7.20;;;;;;;15.52;76.44;155348.44;4995199;28;20463;-77
2023/05/05 01:15:25;;;;;;;7.50;6.77;;;;;;;15.50;76.97;155343.25;4993810;28;20925;-78
2023/05/05 01:17:56;;;;;;;10.60;7.03;;;;;;;15.47;77.14;155335.44;5022958;28;20465;-78
2023/05/05 01:20:28;;;;;;;8.67;7.87;;;;;;;15.45;76.91;155330.19;5032506;28;20538;-77
2023/05/05 01:22:57;;;;;;;11.43;7.13;;;;;;;15.44;77.31;155327.59;4995435;28;20480;-77
2023/05/05 01:25:41;;;;;;;8.77;6.70;;;;;;;15.43;76.73;155325.00;4985966;28;20553;-78
2023/05/05 01:28:20;;;;;;;8.20;7.40;;;;;;;15.37;77.67;155309.41;5011887;28;20470;-78
2023/05/05 01:31:01;;;;;;;7.93;7.13;;;;;;;15.30;77.00;155291.22;5021687;28;20553;-77
2023/05/05 01:33:33;;;;;;;8.17;7.33;;;;;;;15.27;78.21;155282.13;4980184;28;20475;-78
2023/05/05 01:36:04;;;;;;;8.20;7.40;;;;;;;15.24;77.79;155275.63;5001123;28;20777;-78
2023/05/05 01:38:34;;;;;;;8.70;7.27;;;;;;;15.28;78.86;155286.00;4997494;28;20870;-77
2023/05/05 01:41:03;;;;;;;9.20;8.30;;;;;;;15.24;78.42;155275.63;5000482;28;20515;-77
2023/05/05 01:43:31;;;;;;;8.97;7.10;;;;;;;15.18;79.42;155260.00;5020299;28;20492;-77
2023/05/05 01:45:59;;;;;;;8.33;7.43;;;;;;;15.13;79.74;155248.34;4985559;28;20826;-78
2023/05/05 01:48:26;;;;;;;8.70;7.90;;;;;;;15.09;79.76;155237.91;4998261;28;20520;-78
2023/05/05 01:50:54;;;;;;;8.23;7.40;;;;;;;15.06;80.00;155230.09;5018955;28;20524;-78
2023/05/05 01:53:24;;;;;;;8.77;6.10;;;;;;;15.03;80.33;155221.03;5014588;28;20450;-77
2023/05/05 01:55:50;;;;;;;8.57;7.10;;;;;;;14.98;80.54;155208.06;5017928;28;20466;-78
2023/05/05 01:58:18;;;;;;;7.97;7.17;;;;;;;14.97;80.40;155206.75;4997865;28;20659;-77
2023/05/05 02:00:44;;;;;;;10.67;7.77;;;;;;;14.97;80.48;155205.44;5006332;28;20493;-78
2023/05/05 02:03:13;;;;;;;8.10;7.23;;;;;;;14.98;81.40;155208.06;5019352;28;20484;-77
2023/05/05 02:05:40;;;;;;;8.30;7.47;;;;;;;14.99;81.35;155210.63;5028117;28;20451;-78
2023/05/05 02:08:09;;;;;;;8.30;7.50;;;;;;;14.99;81.86;155210.63;5022461;28;20554;-78
2023/05/05 02:10:36;;;;;;;8.47;7.67;;;;;;;14.99;81.90;155210.63;5009984;28;20453;-77
2023/05/05 02:13:02;;;;;;;8.23;7.03;;;;;;;14.99;82.07;155210.63;4993858;28;20483;-78
2023/05/05 02:15:30;;;;;;;7.93;6.70;;;;;;;15.00;82.02;155214.56;4981431;28;20545;-78
2023/05/05 02:17:58;;;;;;;7.80;7.10;;;;;;;15.01;82.51;155215.88;5009818;28;20452;-77
2023/05/05 02:20:25;;;;;;;8.77;7.87;;;;;;;15.00;82.23;155213.25;5024921;28;20472;-78
2023/05/05 02:22:52;;;;;;;8.73;7.20;;;;;;;14.98;82.36;155209.38;5012567;28;20448;-78
2023/05/05 02:25:21;;;;;;;9.53;7.23;;;;;;;14.96;82.61;155202.81;5006138;28;21253;-78
2023/05/05 02:27:48;;;;;;;8.40;7.60;;;;;;;14.92;82.28;155192.47;5028639;28;20552;-77
2023/05/05 02:30:16;;;;;;;8.30;7.50;;;;;;;14.88;82.18;155182.09;5014194;28;20523;-78
2023/05/05 02:32:46;;;;;;;9.00;7.50;;;;;;;14.83;82.64;155170.34;5012848;28;20536;-78
2023/05/05 02:35:15;;;;;;;8.90;7.30;;;;;;;14.81;82.77;155163.88;4988713;28;20554;-77
2023/05/05 02:37:46;;;;;;;8.43;7.63;;;;;;;14.78;82.85;155156.06;5019366;28;20472;-77
2023/05/05 02:40:14;;;;;;;8.90;8.00;;;;;;;14.73;82.55;155143.09;5013855;28;20449;-78
2023/05/05 02:42:46;;;;;;;8.03;7.33;;;;;;;14.70;83.20;155135.28;5026968;28;20557;-78
2023/05/05 02:45:16;;;;;;;9.00;7.70;;;;;;;14.63;83.22;155118.41;5028909;28;20468;-76
2023/05/05 02:47:45;;;;;;;9.80;7.97;;;;;;;14.57;83.62;155104.13;4996062;28;20506;-76
2023/05/05 02:50:12;;;;;;;9.33;7.63;;;;;;;14.54;84.08;155096.31;4993906;28;20451;-76
2023/05/05 02:52:45;;;;;;;9.67;8.63;;;;;;;14.49;84.24;155083.34;5005402;28;20616;-76
2023/05/05 02:55:13;;;;;;;7.73;6.90;;;;;;;14.47;85.08;155076.84;4991856;28;20519;-76
2023/05/05 02:57:48;;;;;;;8.37;7.57;;;;;;;14.45;84.75;155071.69;4992700;28;21059;-76
2023/05/05 03:00:20;;;;;;;7.50;6.80;;;;;;;14.44;85.05;155070.38;4996920;28;20445;-76
2023/05/05 03:02:56;;;;;;;8.33;7.40;;;;;;;14.47;85.42;155078.16;5024272;28;21070;-76
2023/05/05 03:05:25;;;;;;;7.47;6.67;;;;;;;14.49;85.07;155083.34;4993802;28;20456;-76
2023/05/05 03:07:55;;;;;;;7.03;6.33;;;;;;;14.54;85.63;155095.03;5014581;28;20560;-76
2023/05/05 03:10:28;;;;;;;7.80;7.00;;;;;;;14.62;85.79;155117.09;4992018;28;20464;-78
2023/05/05 03:12:59;;;;;;;5.73;5.20;;;;;;;14.71;85.60;155137.91;4996978;28;20495;-76
2023/05/05 03:15:39;;;;;;;6.90;5.77;;;;;;;14.80;85.33;155161.31;4992214;28;20882;-76
2023/05/05 03:18:09;;;;;;;5.70;5.10;;;;;;;14.87;85.33;155179.47;4989467;28;21061;-76
2023/05/05 03:20:37;;;;;;;5.40;4.90;;;;;;;14.95;85.51;155201.56;4999315;28;20466;-76
2023/05/05 03:23:07;;;;;;;5.80;5.30;;;;;;;15.04;85.59;155223.63;5007412;28;20461;-76
2023/05/05 03:25:42;;;;;;;4.97;4.47;;;;;;;15.11;85.28;155241.84;4989663;28;20679;-76
2023/05/05 03:28:10;;;;;;;6.37;4.97;;;;;;;15.18;85.28;155261.31;5022043;28;20492;-76
2023/05/05 03:30:37;;;;;;;5.37;4.87;;;;;;;15.26;85.05;155280.81;5000626;28;21003;-76
2023/05/05 03:33:04;;;;;;;4.80;4.40;;;;;;;15.31;84.42;155293.78;5010620;28;20466;-76
2023/05/05 03:35:31;;;;;;;5.53;4.70;;;;;;;15.36;84.30;155306.78;5003766;28;20455;-76
2023/05/05 03:37:58;;;;;;;5.17;4.67;;;;;;;15.41;83.81;155319.78;5026266;28;20515;-76
2023/05/05 03:40:26;;;;;;;5.53;5.03;;;;;;;15.44;83.27;155327.59;5007221;28;21052;-76
2023/05/05 03:42:53;;;;;;;5.93;5.33;;;;;;;15.49;84.01;155339.38;4992202;28;20461;-76
2023/05/05 03:45:21;;;;;;;5.20;4.70;;;;;;;15.48;84.32;155338.06;5010092;28;20475;-78
2023/05/05 03:47:47;;;;;;;5.60;4.77;;;;;;;15.48;84.68;155338.06;5001594;28;20461;-78
2023/05/05 03:50:15;;;;;;;6.00;5.40;;;;;;;15.47;84.69;155335.44;4993289;28;20542;-78
2023/05/05 03:52:41;;;;;;;5.20;4.80;;;;;;;15.47;84.97;155335.44;4996685;28;20471;-77
2023/05/05 03:55:08;;;;;;;7.40;5.53;;;;;;;15.49;85.03;155339.38;4998404;28;20866;-78
2023/05/05 03:57:35;;;;;;;8.63;5.23;;;;;;;15.51;84.83;155345.88;5006450;28;20491;-78
2023/05/05 04:00:01;;;;;;;5.70;5.20;;;;;;;15.51;84.68;155344.56;5012432;28;20801;-78
2023/05/05 04:02:31;;;;;;;6.90;5.27;;;;;;;15.54;84.99;155352.38;5006699;28;20938;-78
2023/05/05 04:04:57;;;;;;;6.17;5.07;;;;;;;15.56;84.80;155357.56;5025844;28;21012;-77
2023/05/05 04:07:24;;;;;;;5.30;4.80;;;;;;;15.58;85.20;155362.75;5006509;28;20467;-78
2023/05/05 04:09:52;;;;;;;5.67;4.97;;;;;;;15.59;85.47;155365.34;4999039;28;20446;-78
2023/05/05 04:12:19;;;;;;;5.83;5.30;;;;;;;15.59;85.58;155366.66;4983476;28;20469;-78
2023/05/05 04:14:45;;;;;;;6.17;5.13;;;;;;;15.61;85.28;155371.84;4996639;28;20451;-78
2023/05/05 04:17:13;;;;;;;5.30;4.80;;;;;;;15.64;85.33;155378.34;5002531;28;20468;-78
2023/05/05 04:19:41;;;;;;;5.60;5.00;;;;;;;15.68;85.25;155388.72;4986394;28;20469;-78
2023/05/05 04:22:08;;;;;;;5.90;5.30;;;;;;;15.67;85.52;155386.16;4996092;28;20536;-78
2023/05/05 04:24:36;;;;;;;6.80;5.57;;;;;;;15.69;85.67;155392.66;4998571;28;20483;-77
2023/05/05 04:27:02;;;;;;;6.30;4.73;;;;;;;15.70;85.67;155393.97;5004898;28;20539;-78
2023/05/05 04:29:30;;;;;;;5.07;4.67;;;;;;;15.72;85.70;155400.47;5021139;28;20513;-78
2023/05/05 04:31:56;;;;;;;6.40;4.93;;;;;;;15.74;86.03;155405.66;5012681;28;20457;-78
2023/05/05 04:34:23;;;;;;;4.87;4.40;;;;;;;15.76;85.75;155410.84;4985806;28;20971;-78
2023/05/05 04:36:52;;;;;;;5.70;5.10;;;;;;;15.80;86.04;155419.94;4988034;28;20459;-78
2023/05/05 04:39:20;;;;;;;4.90;4.30;;;;;;;15.82;86.03;155426.44;4999900;28;20455;-78
2023/05/05 04:41:47;;;;;;;5.20;4.57;;;;;;;15.84;85.75;155430.31;4996895;28;20475;-78
2023/05/05 04:44:15;;;;;;;5.00;4.47;;;;;;;15.88;85.70;155439.44;4992055;28;20483;-78
2023/05/05 04:46:42;;;;;;;5.97;5.37;;;;;;;15.91;86.08;155447.25;4984628;28;20784;-78
2023/05/05 04:49:08;;;;;;;5.40;4.90;;;;;;;15.94;86.10;155456.31;4998339;28;20458;-78
2023/05/05 04:51:35;;;;;;;5.23;4.73;;;;;;;15.97;85.69;155462.81;4981331;28;20465;-78
2023/05/05 04:54:03;;;;;;;6.73;4.57;;;;;;;15.97;85.93;155462.81;5009352;28;20974;-78
2023/05/05 04:56:30;;;;;;;6.47;5.00;;;;;;;15.97;86.30;155462.81;4997175;28;20454;-78
2023/05/05 04:58:57;;;;;;;6.50;6.00;;;;;;;15.96;86.12;155460.25;5007392;28;20470;-78
2023/05/05 05:01:26;;;;;;;5.80;5.23;;;;;;;15.96;86.33;155460.25;5005429;28;21110;-78
2023/05/05 05:03:52;;;;;;;6.70;5.77;;;;;;;15.93;85.89;155452.44;5002940;28;20908;-78
2023/05/05 05:06:19;;;;;;;7.40;6.60;;;;;;;15.89;85.57;155442.00;5002671;28;20564;-78
2023/05/05 05:08:46;;;;;;;7.23;6.40;;;;;;;15.87;85.75;155438.13;5001308;28;20459;-78
2023/05/05 05:11:15;;;;;;;7.47;6.77;;;;;;;15.91;85.77;155447.25;4998826;28;20864;-78
2023/05/05 05:13:41;;;;;;;7.33;5.77;;;;;;;16.02;85.22;155475.88;4997830;28;20470;-77
2023/05/05 05:16:08;;;;;;;7.67;6.90;;;;;;;16.08;84.15;155491.44;5022551;28;20775;-77
2023/05/05 05:18:35;;;;;;;7.67;7.00;;;;;;;16.11;84.69;155500.56;4999587;28;20459;-78
2023/05/05 05:21:02;;;;;;;8.07;7.27;;;;;;;16.11;84.51;155499.25;4999360;28;21042;-78
2023/05/05 05:23:29;;;;;;;7.70;6.90;;;;;;;16.10;84.71;155496.63;5002389;28;20476;-77
2023/05/05 05:25:56;;;;;;;7.97;7.17;;;;;;;16.08;83.89;155491.44;5004506;28;20479;-78
2023/05/05 05:28:24;;;;;;;8.60;7.70;;;;;;;16.09;84.77;155494.06;4997846;28;20950;-78
2023/05/05 05:30:56;;;;;;;8.40;7.00;;;;;;;16.07;83.89;155488.88;4991080;28;20456;-77
2023/05/05 05:33:22;;;;;;;9.43;8.43;;;;;;;16.09;85.24;155494.06;5003473;28;20464;-77
2023/05/05 05:35:50;;;;;;;7.97;7.17;;;;;;;16.07;83.61;155490.13;4987180;28;20783;-77
2023/05/05 05:38:19;;;;;;;9.40;7.90;;;;;;;16.17;85.12;155514.88;5004303;28;20456;-77
2023/05/05 05:40:47;;;;;;;9.00;8.13;;;;;;;16.29;85.06;155547.34;5017657;28;20495;-77
2023/05/05 05:43:14;;;;;;;10.17;8.67;;;;;;;16.32;83.98;155555.16;5005636;28;20469;-77
2023/05/05 05:45:42;;;;;;;8.60;7.77;;;;;;;16.36;83.42;155565.56;4986416;28;20480;-77
2023/05/05 05:48:09;;;;;;;10.83;8.10;;;;;;;16.41;83.77;155577.28;4980438;28;20879;-77
2023/05/05 05:50:36;;;;;;;8.50;7.60;;;;;;;16.52;84.52;155605.88;5001674;28;20461;-77
2023/05/05 05:53:04;;;;;;;10.97;7.50;;;;;;;16.71;83.68;155654.03;5003728;28;20544;-77
2023/05/05 05:55:31;;;;;;;8.30;7.50;;;;;;;16.97;82.57;155723.00;5004128;28;20905;-77
2023/05/05 05:57:57;;;;;;;8.07;7.27;;;;;;;17.35;81.56;155819.31;5001075;28;20676;-77
2023/05/05 06:00:25;;;;;;;7.80;7.00;;;;;;;17.72;80.71;155915.69;5004501;28;20445;-77
2023/05/05 06:03:00;;;;;;;6.30;5.70;;;;;;;18.06;78.77;156004.22;4985232;28;20458;-78
2023/05/05 06:05:30;;;;;;;6.30;4.90;;;;;;;18.43;77.66;156097.97;5004912;28;20880;-78
2023/05/05 06:07:56;;;;;;;5.53;4.70;;;;;;;18.65;76.98;156155.38;5002114;28;20448;-78
2023/05/05 06:10:25;;;;;;;5.00;4.20;;;;;;;18.64;75.81;156152.75;5003493;28;20453;-77
2023/05/05 06:12:55;;;;;;;4.33;3.93;;;;;;;18.57;76.01;156135.84;5004627;28;20515;-77
2023/05/05 06:15:22;;;;;;;5.20;3.87;;;;;;;18.50;76.09;156116.31;5007169;28;20479;-77
2023/05/05 06:17:49;;;;;;;4.40;4.00;;;;;;;18.40;76.84;156090.22;5005020;28;20453;-77
2023/05/05 06:20:18;;;;;;;4.30;3.80;;;;;;;18.34;77.12;156074.56;4982026;28;20987;-77
2023/05/05 06:22:44;;;;;;;4.30;3.90;;;;;;;18.27;76.89;156056.34;4987379;28;20830;-77
2023/05/05 06:25:11;;;;;;;4.60;3.70;;;;;;;18.22;78.91;156045.91;4984766;28;20515;-77
2023/05/05 06:27:38;;;;;;;4.23;3.77;;;;;;;18.17;77.71;156032.88;4985766;28;20469;-77
2023/05/05 06:30:06;;;;;;;4.40;3.93;;;;;;;18.16;78.65;156029.00;5001433;28;20473;-77
2023/05/05 06:32:33;;;;;;;4.27;3.37;;;;;;;18.11;78.64;156017.25;4984881;28;20464;-77
2023/05/05 06:34:59;;;;;;;4.20;3.80;;;;;;;18.12;80.56;156019.88;5002164;28;20469;-77
2023/05/05 06:37:27;;;;;;;4.20;3.70;;;;;;;18.12;78.30;156018.56;4995116;28;20446;-78
2023/05/05 06:39:55;;;;;;;5.03;3.73;;;;;;;18.14;79.82;156025.06;4968413;28;20470;-78
2023/05/05 06:42:22;;;;;;;5.83;4.40;;;;;;;18.19;80.41;156036.75;4998610;28;20460;-78
2023/05/05 06:44:48;;;;;;;4.97;4.50;;;;;;;18.24;80.58;156049.84;4986254;28;20985;-78
2023/05/05 06:47:16;;;;;;;4.90;4.40;;;;;;;18.24;80.86;156051.09;4984536;28;20458;-78
2023/05/05 06:49:42;;;;;;;5.13;4.10;;;;;;;18.30;79.02;156065.44;4987654;28;21039;-77
2023/05/05 06:52:09;;;;;;;4.93;4.43;;;;;;;18.39;79.50;156087.59;5022083;28;20460;-77
2023/05/05 06:54:38;;;;;;;8.70;4.30;;;;;;;18.53;79.73;156125.38;5007469;28;20442;-78
2023/05/05 06:57:04;;;;;;;4.07;3.73;;;;;;;18.64;78.33;156154.06;4991629;28;20893;-76
2023/05/05 06:59:31;;;;;;;5.80;4.00;;;;;;;18.79;78.91;156191.84;4987313;28;20461;-78
2023/05/05 07:01:58;;;;;;;5.10;4.23;;;;;;;18.84;76.84;156204.88;5004582;28;20477;-78
2023/05/05 07:04:25;;;;;;;4.13;3.47;;;;;;;18.90;78.75;156219.22;4989256;28;20465;-78
2023/05/05 07:06:54;;;;;;;4.37;3.97;;;;;;;18.90;78.61;156220.53;4990453;28;20445;-78
2023/05/05 07:09:20;;;;;;;4.03;3.57;;;;;;;18.90;77.51;156219.22;5021934;28;20453;-78
2023/05/05 07:11:48;;;;;;;3.67;3.37;;;;;;;18.96;78.16;156236.13;4971878;28;20472;-78
2023/05/05 07:14:14;;;;;;;5.40;3.87;;;;;;;19.00;77.21;156246.59;4990165;28;20449;-76
2023/05/05 07:16:42;;;;;;;5.67;3.40;;;;;;;19.03;75.32;156254.41;4985321;28;20469;-78
2023/05/05 07:19:08;;;;;;;4.13;3.70;;;;;;;19.13;75.89;156279.16;4976013;28;20489;-78
2023/05/05 07:21:35;;;;;;;3.47;3.17;;;;;;;19.22;77.10;156302.63;4988187;28;20486;-78
2023/05/05 07:24:02;;;;;;;4.07;3.03;;;;;;;19.27;74.95;156315.66;4983741;28;20461;-77
2023/05/05 07:26:28;;;;;;;3.77;2.97;;;;;;;19.32;73.51;156330.00;5006306;28;21058;-78
2023/05/05 07:28:57;;;;;;;3.37;3.07;;;;;;;19.34;74.89;156335.19;4986643;28;20492;-78
2023/05/05 07:31:24;;;;;;;3.40;3.10;;;;;;;19.33;73.44;156332.56;4990047;28;20466;-78
2023/05/05 07:33:51;;;;;;;3.60;2.90;;;;;;;19.33;73.66;156331.25;4987924;28;20454;-76
2023/05/05 07:36:17;;;;;;;4.57;3.50;;;;;;;19.34;74.13;156335.19;4981888;28;20914;-77
2023/05/05 07:38:44;;;;;;;4.70;3.07;;;;;;;19.38;75.29;156344.34;4986362;28;20454;-77
2023/05/05 07:41:11;;;;;;;3.10;2.80;;;;;;;19.41;73.58;156353.47;4990716;28;20544;-78
2023/05/05 07:43:39;;;;;;;2.80;2.50;;;;;;;19.44;73.15;156361.31;4985535;28;20464;-77
2023/05/05 07:46:07;;;;;;;7.00;3.80;;;;;;;19.43;71.69;156357.41;4969450;28;20474;-77
2023/05/05 07:48:34;;;;;;;3.33;3.03;;;;;;;19.42;73.56;156356.09;5000994;28;20462;-77
2023/05/05 07:51:00;;;;;;;3.17;2.77;;;;;;;19.43;74.30;156358.69;5005052;28;20969;-78
2023/05/05 07:53:27;;;;;;;4.67;3.60;;;;;;;19.43;74.89;156358.69;4970854;28;21010;-77
2023/05/05 07:55:54;;;;;;;4.50;3.27;;;;;;;19.38;75.04;156345.66;4990468;28;20449;-77
2023/05/05 07:58:21;;;;;;;3.93;2.97;;;;;;;19.37;76.47;156343.06;5002591;28;20540;-77
2023/05/05 08:00:49;;;;;;;3.17;2.87;;;;;;;19.34;75.85;156333.88;4968367;28;20446;-77
2023/05/05 08:03:18;;;;;;;4.10;3.70;;;;;;;19.33;75.57;156332.56;5001415;28;20446;-77
2023/05/05 08:05:45;;;;;;;7.37;3.40;;;;;;;19.31;77.56;156327.38;4986277;28;20484;-77
2023/05/05 08:08:12;;;;;;;3.93;3.20;;;;;;;19.25;78.52;156311.72;4988090;28;20450;-77
2023/05/05 08:10:38;;;;;;;9.00;3.20;;;;;;;19.23;80.10;156305.19;5002808;28;20488;-77
2023/05/05 08:13:12;;;;;;;4.20;3.30;;;;;;;19.14;82.20;156283.03;4983982;28;20441;-77
2023/05/05 08:15:39;;;;;;;4.07;3.67;;;;;;;19.08;85.06;156267.44;4981595;28;20442;-77
2023/05/05 08:18:05;;;;;;;4.37;3.97;;;;;;;19.00;84.14;156245.28;4999133;28;20465;-77
2023/05/05 08:20:33;;;;;;;3.90;3.60;;;;;;;18.93;87.51;156228.31;4985510;28;20715;-77
2023/05/05 08:23:00;;;;;;;3.67;3.33;;;;;;;18.83;87.03;156203.56;4980565;28;20462;-89
2023/05/05 08:25:27;;;;;;;5.37;4.40;;;;;;;18.83;91.07;156202.25;4987181;28;20489;-89
2023/05/05 08:28:30;;;;;;;4.30;3.90;;;;;;;18.78;91.86;156189.22;4966999;28;20561;-89
2023/05/05 08:30:57;;;;;;;4.60;3.70;;;;;;;18.79;93.63;156191.84;5014652;28;20458;-89
2023/05/05 08:33:24;;;;;;;5.70;4.60;;;;;;;18.76;93.89;156185.34;4963515;28;20478;-88
2023/05/05 08:35:52;;;;;;;4.30;3.87;;;;;;;18.73;94.11;156176.22;4988214;28;20512;-88
2023/05/05 08:38:18;;;;;;;4.73;3.40;;;;;;;18.68;93.57;156164.50;4976042;28;20444;-88
2023/05/05 08:40:45;;;;;;;4.40;4.00;;;;;;;18.63;91.45;156150.16;4980159;28;20575;-89
2023/05/05 08:43:12;;;;;;;3.87;3.27;;;;;;;18.60;91.98;156142.34;5004333;28;20522;-89
2023/05/05 08:45:40;;;;;;;3.83;3.43;;;;;;;18.62;94.55;156147.53;4998681;28;20473;-89
2023/05/05 08:48:07;;;;;;;4.43;3.90;;;;;;;18.61;94.24;156144.97;4989019;28;21054;-90
2023/05/05 08:50:34;;;;;;;4.37;3.63;;;;;;;18.58;92.38;156137.13;4990564;28;20473;-90
2023/05/05 08:53:09;;;;;;;4.80;4.40;;;;;;;18.60;92.28;156142.34;4986539;28;20465;-89
2023/05/05 08:55:38;;;;;;;5.80;4.17;;;;;;;18.61;93.22;156144.97;4988763;28;20450;-88
2023/05/05 08:58:05;;;;;;;6.87;4.30;;;;;;;18.65;94.77;156155.38;4986207;28;20474;-89
2023/05/05 09:00:31;;;;;;;4.30;3.90;;;;;;;18.66;92.75;156159.31;4985289;28;20467;-89
2023/05/05 09:02:59;;;;;;;5.23;3.93;;;;;;;18.68;91.62;156163.19;4997841;28;20528;-89
2023/05/05 09:05:26;;;;;;;5.17;4.10;;;;;;;18.68;91.23;156163.19;4986406;28;20818;-90
2023/05/05 09:07:53;;;;;;;4.73;4.33;;;;;;;18.65;92.15;156156.66;4996508;28;20462;-89
2023/05/05 09:10:21;;;;;;;5.30;4.10;;;;;;;18.66;92.94;156158.00;4986570;28;20455;-90
2023/05/05 09:12:49;;;;;;;4.57;4.03;;;;;;;18.68;93.39;156163.19;4983920;28;20802;-89
2023/05/05 09:15:16;;;;;;;5.67;4.67;;;;;;;18.66;92.57;156159.31;4991016;28;21123;-89
2023/05/05 09:17:43;;;;;;;4.80;4.30;;;;;;;18.67;93.08;156161.88;4989963;28;20468;-90
2023/05/05 09:20:11;;;;;;;4.90;4.40;;;;;;;18.66;91.27;156158.00;4966489;28;20473;-90
2023/05/05 09:22:38;;;;;;;6.60;5.27;;;;;;;18.71;91.43;156171.00;4988273;28;20474;-90
2023/05/05 09:25:06;;;;;;;4.50;4.10;;;;;;;18.70;90.78;156168.38;4988467;28;20461;-89
2023/05/05 09:27:37;;;;;;;4.93;4.53;;;;;;;18.76;91.75;156184.03;4985598;28;20458;-89
2023/05/05 09:30:05;;;;;;;5.07;4.57;;;;;;;18.83;91.16;156202.25;4986362;28;20454;-89
2023/05/05 09:32:43;;;;;;;5.13;4.10;;;;;;;18.91;89.77;156223.09;4987678;28;20457;-89
2023/05/05 09:35:09;;;;;;;5.13;4.40;;;;;;;18.95;87.78;156233.56;4999096;28;20485;-89
2023/05/05 09:37:37;;;;;;;6.47;5.03;;;;;;;18.98;85.90;156241.38;4998917;28;20461;-89
2023/05/05 09:40:05;;;;;;;5.63;4.70;;;;;;;19.08;88.98;156267.44;4996781;28;21153;-89
2023/05/05 09:42:32;;;;;;;5.23;4.10;;;;;;;19.19;89.36;156296.13;4976943;28;20500;-89
2023/05/05 09:45:00;;;;;;;5.10;3.30;;;;;;;19.14;80.25;156281.78;4986116;28;20485;-89
2023/05/05 09:47:34;;;;;;;4.83;3.93;;;;;;;19.20;81.40;156298.69;4978274;28;21015;-89
2023/05/05 09:50:00;;;;;;;3.80;3.40;;;;;;;19.27;81.42;156316.91;5000633;28;20461;-89
2023/05/05 09:52:27;;;;;;;6.63;3.13;;;;;;;19.42;79.24;156356.09;4987480;28;20613;-89
2023/05/05 09:54:54;;;;;;;4.40;3.30;;;;;;;19.54;78.59;156384.78;5000719;28;20793;-89
2023/05/05 09:57:28;;;;;;;3.70;3.07;;;;;;;19.64;78.93;156412.16;4984035;28;21102;-89
2023/05/05 09:59:56;;;;;;;3.57;2.80;;;;;;;19.79;79.95;156451.28;4984775;28;20568;-90
2023/05/05 10:02:30;;;;;;;3.30;3.00;;;;;;;19.89;77.39;156477.34;4983552;28;20848;-90
2023/05/05 10:05:04;;;;;;;3.93;3.50;;;;;;;19.97;78.21;156496.88;4979778;28;20537;-90
2023/05/05 10:07:31;;;;;;;3.37;3.07;;;;;;;20.05;77.22;156517.75;4990408;28;20486;-89
2023/05/05 10:09:58;;;;;;;3.60;2.57;;;;;;;20.10;75.97;156530.78;5001726;28;20453;-89
2023/05/05 10:12:25;;;;;;;4.70;3.40;;;;;;;20.26;73.17;156571.25;4961763;28;20471;-90
2023/05/05 10:14:52;;;;;;;4.37;2.90;;;;;;;20.29;74.75;156580.41;4968250;28;20454;-89
2023/05/05 10:17:20;;;;;;;2.63;2.30;;;;;;;20.34;74.21;156593.44;4969094;28;20481;-90
2023/05/05 10:19:50;;;;;;;3.10;2.80;;;;;;;20.37;69.88;156599.97;4977180;28;20454;-89
2023/05/05 10:22:17;;;;;;;3.50;3.13;;;;;;;20.41;67.75;156610.44;4981717;28;20469;-90
2023/05/05 10:24:47;;;;;;;2.70;2.50;;;;;;;20.37;67.03;156601.28;5018427;28;20565;-90
2023/05/05 10:27:15;;;;;;;3.13;2.60;;;;;;;20.33;66.42;156589.56;4973682;28;20489;-90
2023/05/05 10:29:48;;;;;;;3.27;2.23;;;;;;;20.39;68.75;156606.47;5003940;28;20457;-90
2023/05/05 10:32:20;;;;;;;6.13;2.77;;;;;;;20.47;68.36;156627.34;5006117;28;20458;-89
2023/05/05 10:34:53;;;;;;;2.87;2.63;;;;;;;20.49;67.19;156632.56;4990307;28;20872;-89
2023/05/05 10:37:21;;;;;;;3.03;2.70;;;;;;;20.48;69.52;156628.66;4992350;28;20465;-89
2023/05/05 10:39:49;;;;;;;3.60;2.63;;;;;;;20.48;67.39;156629.97;5000051;28;20836;-90
2023/05/05 10:42:15;;;;;;;3.87;3.03;;;;;;;20.51;67.82;156636.50;4990846;28;20473;-90
2023/05/05 10:44:42;;;;;;;4.13;2.77;;;;;;;20.52;67.30;156640.41;5004076;28;20478;-90
2023/05/05 10:47:09;;;;;;;3.33;2.83;;;;;;;20.49;66.74;156632.56;5002609;28;20556;-90
2023/05/05 10:49:41;;;;;;;3.00;2.50;;;;;;;20.52;68.23;156640.41;4990142;28;20453;-90
2023/05/05 10:52:17;;;;;;;2.80;2.47;;;;;;;20.53;68.21;156641.72;5003856;28;20463;-90
2023/05/05 10:54:47;;;;;;;3.03;2.73;;;;;;;20.50;71.38;156635.19;4990281;28;20459;-90
2023/05/05 10:57:15;;;;;;;2.70;2.50;;;;;;;20.43;67.95;156616.94;4994446;28;20852;-90
2023/05/05 10:59:42;;;;;;;2.57;2.37;;;;;;;20.38;68.50;156603.91;5007635;28;20884;-90
2023/05/05 11:02:26;;;;;;;3.63;2.80;;;;;;;20.41;68.83;156611.69;4973450;28;20465;-89
2023/05/05 11:05:13;;;;;;;3.07;2.53;;;;;;;20.27;68.26;156575.19;4983365;28;20752;-89
2023/05/05 11:07:41;;;;;;;2.90;2.50;;;;;;;20.15;68.38;156542.56;4994386;28;20473;-90
2023/05/05 11:10:09;;;;;;;4.63;3.00;;;;;;;20.13;68.62;156537.31;4978830;28;20860;-90
2023/05/05 11:13:13;;;;;;;4.57;3.10;;;;;;;20.02;69.89;156509.91;4962123;28;20869;-90
2023/05/05 11:15:40;;;;;;;3.20;2.90;;;;;;;19.94;68.73;156489.06;4983271;28;20461;-90
2023/05/05 11:18:07;;;;;;;3.27;2.80;;;;;;;19.91;69.12;156481.22;5004834;28;20452;-89
2023/05/05 11:21:02;;;;;;;3.40;3.10;;;;;;;19.88;69.54;156474.69;4994204;28;20798;-90
2023/05/05 11:23:30;;;;;;;3.30;2.70;;;;;;;19.98;71.07;156499.50;4989788;28;20462;-90
2023/05/05 11:25:57;;;;;;;3.60;3.30;;;;;;;19.97;70.17;156498.19;5001617;28;20535;-90
2023/05/05 11:28:28;;;;;;;4.90;3.40;;;;;;;19.92;69.17;156483.84;4991156;28;20773;-89
2023/05/05 11:31:17;;;;;;;7.00;3.40;;;;;;;19.97;73.36;156496.88;4983132;28;20442;-90